KELN/ELN METAR and TAF weather

Enter ICAO airport designator
Station Type Date Time Source
KELN METAR 2018/01/21 11:53 UTC NOAA

KELN 211153Z AUTO 07007KT 10SM SCT110 03/M01 A2999 RMK AO2 SLP165 T00281011 10028 21011 56007


Station Type Date Time Source
KELN Decoded METAR 2018/01/21 11:53 UTC NOAA

ELLENSBURG BOWERS FIELD, WA, United States (KELN) 47-02N 120-32W 519M
Jan 21, 2018 - 06:53 AM EST / 2018.01.21 1153 UTC
Wind: from the ENE (070 degrees) at 8 MPH (7 KT):0
Visibility: 10 mile(s):0
Sky conditions: partly cloudy
Temperature: 37.0 F (2.8 C)
Dew Point: 30.0 F (-1.1 C)
Relative Humidity: 75%
Pressure (altimeter): 29.99 in. Hg (1015 hPa)
Pressure tendency: 0.02 inches (0.7 hPa) lower than three hours ago
ob: KELN 211153Z AUTO 07007KT 10SM SCT110 03/M01 A2999 RMK AO2 SLP165 T00281011 10028 21011 56007
cycle: 12

Station Type Date Time Source
KELN TAF UTC NOAA

Error!


Example: see airport list